Terminal Aerodrome Forecast
Issued by NWS New Orleans/Baton Rouge, LA

Home | Current Version | Previous Version | Text Only | Print | Product List | Glossary On
Versions: 1 2 3 4 5 6 7 8 9 10 11 12 13 14 15 16 17 18 19 20
000
FTUS44 KLIX 301728
TAFBTR
TAF
KBTR 301728Z 3018/0118 08006KT P6SM -RA SCT015 BKN035 OVC045
      TEMPO 3018/3021 VRB25G40KT 1SM TSRA OVC010CB
     FM302100 17010KT P6SM SCT025 OVC040
     FM010600 15004KT P6SM OVC008=

USA.gov is the U.S. government's official web portal to all federal, state and local government web resources and services.